CheckWX is a tool to help pilots better visualize weather data.  It is not intended as a substitute for an official pre-flight weather briefing.

21:38:14 UTC

CYOC TAF
Old Crow Airport
Old Crow, Canada
TAF CYOC 201738Z 2018/2101 06008KT P6SM FEW100 SCT220 FM210000 05010KT P6SM SCT025 BKN120 OVC200 RMK NXT FCST WILL BE ISSUED AT 211445Z

Mar-20@
18:00 UTC

Mar-20 @ 18:00 UTC

Mar-21@
00:00 UTC

Mar-21 @ 00:00 UTC

TAF CYOC 201738Z 2018/2101 06008KT P6SM FEW100 SCT220
Wind
  • 060° at 8 KTS
Cloud Levels
  • Few at 10,000' AGL
  • Scattered at 22,000' AGL

Mar-21@
00:00 UTC

Mar-21 @ 00:00 UTC

Mar-21@
01:00 UTC

Mar-21 @ 01:00 UTC

FM210000 05010KT P6SM SCT025 BKN120 OVC200 RMK NXT FCST WILL BE ISSUED AT 211445Z

From

From Standard forecast or significant change

Wind
  • 050° at 10 KTS
Cloud Levels
  • Scattered at 2,500' AGL
  • Broken at 12,000' AGL
  • Overcast at 20,000' AGL